createdAt,value
2023-03-25T00:01:25.771Z,78.17
2023-03-25T00:03:53.820Z,78.25
2023-03-25T00:06:21.393Z,78.46
2023-03-25T00:08:48.778Z,78.56
2023-03-25T00:11:16.647Z,78.57
2023-03-25T00:13:44.684Z,78.62
2023-03-25T00:16:12.496Z,78.59
2023-03-25T00:18:40.237Z,78.76
2023-03-25T00:21:10.944Z,78.72
2023-03-25T00:23:38.935Z,78.77
2023-03-25T00:26:06.720Z,78.80
2023-03-25T00:28:35.917Z,78.92
2023-03-25T00:31:04.502Z,78.95
2023-03-25T00:33:33.562Z,78.98
2023-03-25T00:36:00.782Z,79.11
2023-03-25T00:38:33.533Z,79.05
2023-03-25T00:41:07.231Z,79.18
2023-03-25T00:43:34.302Z,79.25
2023-03-25T00:46:01.823Z,79.31
2023-03-25T00:48:29.882Z,79.26
2023-03-25T00:50:57.054Z,79.37
2023-03-25T00:53:24.293Z,79.42
2023-03-25T00:55:51.665Z,79.37
2023-03-25T00:58:18.883Z,79.48
2023-03-25T01:00:48.303Z,79.43
2023-03-25T01:03:15.645Z,79.62
2023-03-25T01:05:42.820Z,79.71
2023-03-25T01:08:10.576Z,79.78
2023-03-25T01:10:39.268Z,79.77
2023-03-25T01:13:06.409Z,79.88
2023-03-25T01:15:33.714Z,79.87
2023-03-25T01:18:01.119Z,79.98
2023-03-25T01:20:28.153Z,80.11
2023-03-25T01:22:55.428Z,80.09
2023-03-25T01:25:22.696Z,80.18
2023-03-25T01:27:49.665Z,80.25
2023-03-25T01:30:19.613Z,80.42
2023-03-25T01:32:46.835Z,80.48
2023-03-25T01:35:14.127Z,80.52
2023-03-25T01:37:44.257Z,80.66
2023-03-25T01:40:18.626Z,80.70
2023-03-25T01:42:46.635Z,80.71
2023-03-25T01:45:27.005Z,80.81
2023-03-25T01:48:01.351Z,81.00
2023-03-25T01:50:29.494Z,81.04
2023-03-25T01:52:58.343Z,81.35
2023-03-25T01:55:27.621Z,81.47
2023-03-25T01:57:59.813Z,81.47
2023-03-25T02:00:28.200Z,81.53
2023-03-25T02:02:59.014Z,81.69
2023-03-25T02:05:33.372Z,81.80
2023-03-25T02:08:03.367Z,81.93
2023-03-25T02:10:30.757Z,82.10
2023-03-25T02:12:58.090Z,82.09
2023-03-25T02:15:25.538Z,82.13
2023-03-25T02:18:11.968Z,82.28
2023-03-25T02:21:03.272Z,82.40
2023-03-25T02:23:59.252Z,82.49
2023-03-25T02:26:59.913Z,82.67
2023-03-25T02:29:38.342Z,82.74
2023-03-25T02:32:20.085Z,82.79
2023-03-25T02:35:08.284Z,82.95
2023-03-25T02:38:21.835Z,82.97
2023-03-25T02:40:55.809Z,83.14
2023-03-25T02:43:33.069Z,83.16
2023-03-25T02:46:04.913Z,83.30
2023-03-25T02:48:37.078Z,83.47
2023-03-25T02:51:12.389Z,83.54
2023-03-25T02:53:42.778Z,83.70
2023-03-25T02:56:17.033Z,83.58
2023-03-25T02:58:46.093Z,83.69
2023-03-25T03:01:15.029Z,83.76
2023-03-25T03:03:42.712Z,83.84
2023-03-25T03:06:21.653Z,83.96
2023-03-25T03:09:09.342Z,83.92
2023-03-25T03:11:47.496Z,84.02
2023-03-25T03:14:38.680Z,84.04
2023-03-25T03:17:14.052Z,84.09
2023-03-25T03:19:47.480Z,84.13
2023-03-25T03:22:44.259Z,84.22
2023-03-25T03:25:22.076Z,84.44
2023-03-25T03:28:07.100Z,84.39
2023-03-25T03:30:39.776Z,84.51
2023-03-25T03:33:13.540Z,84.53
2023-03-25T03:35:50.403Z,84.44
2023-03-25T03:38:24.056Z,84.58
2023-03-25T03:40:57.353Z,84.60
2023-03-25T03:43:28.143Z,84.59
2023-03-25T03:46:00.647Z,84.74
2023-03-25T03:48:32.048Z,84.69
2023-03-25T03:51:03.255Z,84.84
2023-03-25T03:53:35.223Z,84.95
2023-03-25T03:56:07.366Z,84.92
2023-03-25T03:58:38.112Z,84.97
2023-03-25T04:01:12.796Z,85.04
2023-03-25T04:03:48.736Z,85.20
2023-03-25T04:06:24.813Z,85.20
2023-03-25T04:08:59.927Z,85.29
2023-03-25T04:11:32.639Z,85.38
2023-03-25T04:14:03.888Z,85.40
2023-03-25T04:16:34.711Z,85.39
2023-03-25T04:19:04.197Z,85.48
2023-03-25T04:21:31.271Z,85.57
2023-03-25T04:24:01.357Z,85.51
2023-03-25T04:26:34.213Z,85.65
2023-03-25T04:29:09.569Z,85.77
2023-03-25T04:31:37.896Z,85.79
2023-03-25T04:34:05.640Z,85.79
2023-03-25T04:36:33.767Z,85.84
2023-03-25T04:39:01.403Z,85.88
2023-03-25T04:41:28.845Z,86.02
2023-03-25T04:43:56.386Z,85.87
2023-03-25T04:46:23.951Z,85.85
2023-03-25T04:48:51.108Z,85.93
2023-03-25T04:51:18.461Z,85.87
2023-03-25T04:53:45.933Z,85.74
2023-03-25T04:56:17.207Z,85.74
2023-03-25T04:58:44.762Z,85.82
2023-03-25T05:01:18.033Z,85.73
2023-03-25T05:03:45.127Z,85.60
2023-03-25T05:06:12.443Z,85.36
2023-03-25T05:08:39.665Z,84.97
2023-03-25T05:11:07.369Z,84.51
2023-03-25T05:13:34.574Z,83.99
2023-03-25T05:16:01.929Z,83.84
2023-03-25T05:18:29.096Z,83.63
2023-03-25T05:20:56.913Z,83.71
2023-03-25T05:23:24.916Z,83.63
2023-03-25T05:25:53.803Z,83.66
2023-03-25T05:28:21.537Z,83.53
2023-03-25T05:30:49.614Z,83.60
2023-03-25T05:33:19.040Z,83.55
2023-03-25T05:35:49.822Z,83.51
2023-03-25T05:38:19.099Z,83.44
2023-03-25T05:40:47.638Z,83.56
2023-03-25T05:43:15.981Z,83.52
2023-03-25T05:45:43.342Z,83.51
2023-03-25T05:48:11.199Z,83.54
2023-03-25T05:50:42.956Z,83.62
2023-03-25T05:53:11.480Z,83.55
2023-03-25T05:55:38.779Z,83.49
2023-03-25T05:58:07.014Z,83.45
2023-03-25T06:00:34.995Z,83.31
2023-03-25T06:03:04.574Z,83.27
2023-03-25T06:05:31.738Z,82.98
2023-03-25T06:07:58.780Z,83.11
2023-03-25T06:10:26.330Z,83.05
2023-03-25T06:12:54.409Z,82.97
2023-03-25T06:15:29.361Z,83.05
2023-03-25T06:17:57.231Z,82.99
2023-03-25T06:20:26.344Z,82.79
2023-03-25T06:22:53.549Z,82.72
2023-03-25T06:25:21.861Z,82.56
2023-03-25T06:27:50.450Z,82.46
2023-03-25T06:30:20.537Z,82.22
2023-03-25T06:32:50.817Z,82.10
2023-03-25T06:35:20.629Z,81.83
2023-03-25T06:37:48.480Z,81.49
2023-03-25T06:40:22.511Z,80.89
2023-03-25T06:42:50.067Z,80.17
2023-03-25T06:45:40.030Z,79.10
2023-03-25T06:48:22.859Z,78.57
2023-03-25T06:50:53.464Z,78.10
2023-03-25T06:53:22.967Z,77.64
2023-03-25T06:55:50.502Z,77.53
2023-03-25T06:58:17.857Z,77.17
2023-03-25T07:00:46.041Z,76.87
2023-03-25T07:03:13.794Z,76.14
2023-03-25T07:05:45.341Z,75.82
2023-03-25T07:08:13.314Z,75.54
2023-03-25T07:10:40.611Z,75.33
2023-03-25T07:13:09.855Z,75.47
2023-03-25T07:15:37.565Z,75.35
2023-03-25T07:18:10.178Z,74.87
2023-03-25T07:20:37.746Z,74.12
2023-03-25T07:23:04.849Z,73.45
2023-03-25T07:25:31.927Z,72.57
2023-03-25T07:27:58.952Z,71.55
2023-03-25T07:30:26.085Z,69.66
2023-03-25T07:32:54.700Z,67.43
2023-03-25T07:35:22.079Z,65.60
2023-03-25T07:37:49.212Z,64.53
2023-03-25T07:40:18.202Z,61.89
2023-03-25T07:42:46.602Z,61.21
2023-03-25T07:45:21.864Z,58.51
2023-03-25T07:47:51.343Z,57.33
2023-03-25T07:50:19.305Z,57.54
2023-03-25T07:52:46.799Z,56.10
2023-03-25T07:55:14.577Z,56.10
2023-03-25T07:57:42.171Z,54.78
2023-03-25T08:00:12.888Z,52.77
2023-03-25T08:02:41.889Z,50.83
2023-03-25T08:05:10.024Z,50.21
2023-03-25T08:07:37.742Z,50.42
2023-03-25T08:10:04.988Z,50.67
2023-03-25T08:12:32.144Z,49.30
2023-03-25T08:15:00.184Z,48.23
2023-03-25T08:17:27.308Z,46.68
2023-03-25T08:19:54.676Z,45.24
2023-03-25T08:22:21.858Z,44.50
2023-03-25T08:24:49.409Z,43.17
2023-03-25T08:27:16.888Z,42.86
2023-03-25T08:29:44.104Z,41.93
2023-03-25T08:32:11.797Z,40.56
2023-03-25T08:34:40.261Z,40.31
2023-03-25T08:37:08.662Z,39.50
2023-03-25T08:39:39.842Z,39.05
2023-03-25T08:42:07.500Z,38.35
2023-03-25T08:44:34.585Z,37.70
2023-03-25T08:47:01.916Z,37.10
2023-03-25T08:49:29.051Z,36.99
2023-03-25T08:51:58.207Z,35.82
2023-03-25T08:54:26.203Z,35.50
2023-03-25T08:56:53.435Z,35.71
2023-03-25T08:59:20.806Z,35.46
2023-03-25T09:01:49.482Z,35.13
2023-03-25T09:04:16.896Z,34.28
2023-03-25T09:06:47.740Z,34.30
2023-03-25T09:09:15.854Z,33.84
2023-03-25T09:11:43.134Z,32.80
2023-03-25T09:14:10.506Z,33.21
2023-03-25T09:16:37.627Z,34.28
2023-03-25T09:19:05.019Z,34.26
2023-03-25T09:21:32.131Z,34.61
2023-03-25T09:23:59.782Z,35.48
2023-03-25T09:26:27.278Z,35.83
2023-03-25T09:28:55.639Z,36.31
2023-03-25T09:31:22.808Z,37.08
2023-03-25T09:33:49.915Z,37.67
2023-03-25T09:36:16.960Z,37.90
2023-03-25T09:38:44.243Z,38.39
2023-03-25T09:41:31.296Z,38.99
2023-03-25T09:44:09.502Z,39.78
2023-03-25T09:46:38.038Z,40.98
2023-03-25T09:49:06.087Z,41.55
2023-03-25T09:51:37.181Z,42.02
2023-03-25T09:54:16.416Z,42.30
2023-03-25T09:56:45.422Z,42.93
2023-03-25T09:59:19.173Z,43.85
2023-03-25T10:01:55.286Z,44.26
2023-03-25T10:04:47.855Z,44.64
2023-03-25T10:07:30.815Z,44.79
2023-03-25T10:10:05.070Z,45.36
2023-03-25T10:12:43.635Z,44.95
2023-03-25T10:15:27.441Z,44.91
2023-03-25T10:18:17.084Z,45.03
2023-03-25T10:20:55.805Z,44.97
2023-03-25T10:23:29.181Z,44.59
2023-03-25T10:26:02.172Z,44.34
2023-03-25T10:28:34.378Z,43.61
2023-03-25T10:31:03.377Z,43.08
2023-03-25T10:33:34.472Z,42.98
2023-03-25T10:36:03.434Z,42.53
2023-03-25T10:38:34.556Z,41.47
2023-03-25T10:41:12.841Z,41.48
2023-03-25T10:43:43.343Z,40.67
2023-03-25T10:46:19.806Z,40.03
2023-03-25T10:48:48.334Z,40.09
2023-03-25T10:51:18.096Z,40.49
2023-03-25T10:53:49.806Z,40.31
2023-03-25T10:56:19.002Z,40.12
2023-03-25T10:58:49.648Z,40.02
2023-03-25T11:01:19.575Z,40.01
2023-03-25T11:03:48.178Z,39.33
2023-03-25T11:06:25.564Z,38.40
2023-03-25T11:09:15.497Z,37.61
2023-03-25T11:11:44.744Z,38.26
2023-03-25T11:14:13.564Z,38.56
2023-03-25T11:16:45.211Z,38.78
2023-03-25T11:19:20.770Z,39.08
2023-03-25T11:21:49.958Z,39.68
2023-03-25T11:24:19.214Z,39.51
2023-03-25T11:26:52.555Z,39.75
2023-03-25T11:29:23.008Z,39.71
2023-03-25T11:31:59.364Z,39.57
2023-03-25T11:34:26.577Z,39.80
2023-03-25T11:37:00.871Z,39.85
2023-03-25T11:39:35.837Z,39.78
2023-03-25T11:42:15.948Z,39.36
2023-03-25T11:44:43.282Z,39.14
2023-03-25T11:47:12.807Z,38.68
2023-03-25T11:49:42.473Z,38.38
2023-03-25T11:52:14.645Z,38.73
2023-03-25T11:54:43.671Z,39.02
2023-03-25T11:57:17.515Z,39.51
2023-03-25T11:59:48.934Z,39.73
2023-03-25T12:02:25.517Z,39.74
2023-03-25T12:05:03.341Z,40.11
2023-03-25T12:07:31.578Z,40.72
2023-03-25T12:10:05.548Z,41.07
2023-03-25T12:12:48.842Z,41.40
2023-03-25T12:15:25.019Z,41.73
2023-03-25T12:18:02.885Z,41.89
2023-03-25T12:20:35.220Z,42.34
2023-03-25T12:23:11.920Z,42.67
2023-03-25T12:25:54.829Z,42.43
2023-03-25T12:29:02.801Z,42.41
2023-03-25T12:31:43.096Z,42.56
2023-03-25T12:34:20.320Z,42.38
2023-03-25T12:37:00.178Z,42.51
2023-03-25T12:39:51.324Z,43.09
2023-03-25T12:42:30.734Z,43.38
2023-03-25T12:45:15.494Z,43.76
2023-03-25T12:47:47.924Z,43.95
2023-03-25T12:50:32.302Z,44.40
2023-03-25T12:53:05.330Z,45.02
2023-03-25T12:55:45.512Z,46.00
2023-03-25T12:58:32.481Z,47.61
2023-03-25T13:01:08.559Z,48.34
2023-03-25T13:04:09.876Z,48.71
2023-03-25T13:06:44.920Z,50.28
2023-03-25T13:09:21.519Z,51.61
2023-03-25T13:11:52.358Z,52.17
2023-03-25T13:14:24.594Z,52.95
2023-03-25T13:16:56.936Z,53.47
2023-03-25T13:19:28.293Z,54.31
2023-03-25T13:22:00.734Z,54.62
2023-03-25T13:24:37.020Z,55.58
2023-03-25T13:27:06.339Z,55.85
2023-03-25T13:29:38.363Z,56.04
2023-03-25T13:32:10.712Z,56.16
2023-03-25T13:34:45.711Z,56.15
2023-03-25T13:37:20.098Z,56.36
2023-03-25T13:39:59.206Z,56.66
2023-03-25T13:42:32.997Z,57.01
2023-03-25T13:45:03.850Z,57.33
2023-03-25T13:47:35.882Z,57.35
2023-03-25T13:50:08.614Z,57.04
2023-03-25T13:52:40.966Z,57.05
2023-03-25T13:55:16.396Z,57.26
2023-03-25T13:58:19.811Z,57.48
2023-03-25T14:01:04.511Z,57.21
2023-03-25T14:03:59.856Z,56.95
2023-03-25T14:06:54.076Z,56.96
2023-03-25T14:10:02.399Z,57.19
2023-03-25T14:12:33.633Z,57.18
2023-03-25T14:15:09.286Z,57.50
2023-03-25T14:17:39.780Z,57.63
2023-03-25T14:20:12.666Z,57.59
2023-03-25T14:22:44.108Z,56.91
2023-03-25T14:25:28.491Z,56.26
2023-03-25T14:27:55.881Z,56.07
2023-03-25T14:30:25.930Z,56.09
2023-03-25T14:32:56.103Z,55.80
2023-03-25T14:35:51.603Z,55.45
2023-03-25T14:38:55.405Z,55.51
2023-03-25T14:41:53.102Z,55.35
2023-03-25T14:44:22.903Z,55.39
2023-03-25T14:46:50.539Z,55.49
2023-03-25T14:49:30.311Z,55.55
2023-03-25T14:51:59.726Z,55.90
2023-03-25T14:54:34.853Z,55.11
2023-03-25T14:57:09.292Z,54.10
2023-03-25T14:59:41.544Z,53.76
2023-03-25T15:02:18.068Z,53.72
2023-03-25T15:04:47.524Z,54.02
2023-03-25T15:07:20.097Z,54.54
2023-03-25T15:09:56.149Z,55.37
2023-03-25T15:12:27.518Z,56.30
2023-03-25T15:15:08.478Z,57.25
2023-03-25T15:17:49.307Z,58.28
2023-03-25T15:20:37.155Z,59.03
2023-03-25T15:23:33.115Z,59.91
2023-03-25T15:26:02.265Z,60.38
2023-03-25T15:28:45.326Z,60.83
2023-03-25T15:31:25.053Z,61.14
2023-03-25T15:34:07.169Z,61.64
2023-03-25T15:36:47.223Z,62.35
2023-03-25T15:39:32.714Z,63.11
2023-03-25T15:42:14.425Z,63.49
2023-03-25T15:45:00.625Z,63.83
2023-03-25T15:47:55.211Z,64.49
2023-03-25T15:50:32.536Z,64.69
2023-03-25T15:53:39.471Z,65.30
2023-03-25T15:56:13.573Z,65.66
2023-03-25T15:58:48.528Z,65.62
2023-03-25T16:01:26.049Z,65.60
2023-03-25T16:04:01.388Z,66.04
2023-03-25T16:06:29.927Z,66.18
2023-03-25T16:09:09.367Z,66.41
2023-03-25T16:11:37.638Z,66.63
2023-03-25T16:14:09.480Z,66.57
2023-03-25T16:16:40.843Z,66.68
2023-03-25T16:19:13.786Z,66.70
2023-03-25T16:21:42.115Z,66.75
2023-03-25T16:24:13.889Z,66.68
2023-03-25T16:26:44.548Z,67.08
2023-03-25T16:29:20.465Z,67.26
2023-03-25T16:31:57.723Z,67.54
2023-03-25T16:34:25.454Z,67.66
2023-03-25T16:36:55.051Z,67.76
2023-03-25T16:39:26.390Z,67.91
2023-03-25T16:42:06.525Z,67.93
2023-03-25T16:44:34.502Z,67.98
2023-03-25T16:47:03.341Z,67.98
2023-03-25T16:49:33.835Z,68.07
2023-03-25T16:52:03.453Z,68.20
2023-03-25T16:54:38.861Z,68.27
2023-03-25T16:57:16.584Z,68.28
2023-03-25T16:59:47.670Z,68.48
2023-03-25T17:02:29.116Z,68.51
2023-03-25T17:05:13.540Z,68.59
2023-03-25T17:07:43.484Z,68.83
2023-03-25T17:10:22.615Z,68.86
2023-03-25T17:12:58.032Z,69.15
2023-03-25T17:15:27.359Z,69.48
2023-03-25T17:18:01.016Z,69.82
2023-03-25T17:20:36.107Z,70.01
2023-03-25T17:23:09.303Z,70.25
2023-03-25T17:25:49.592Z,70.31
2023-03-25T17:28:35.409Z,70.56
2023-03-25T17:31:18.383Z,70.69
2023-03-25T17:33:51.100Z,70.80
2023-03-25T17:36:21.376Z,71.11
2023-03-25T17:38:52.186Z,71.44
2023-03-25T17:41:21.717Z,71.41
2023-03-25T17:43:52.318Z,71.81
2023-03-25T17:46:23.404Z,72.19
2023-03-25T17:49:02.306Z,72.51
2023-03-25T17:51:32.811Z,72.92
2023-03-25T17:53:59.971Z,73.03
2023-03-25T17:56:29.468Z,73.18
2023-03-25T17:59:00.123Z,73.16
2023-03-25T18:01:31.472Z,73.50
2023-03-25T18:03:59.339Z,73.33
2023-03-25T18:06:27.422Z,73.49
2023-03-25T18:08:55.050Z,73.54
2023-03-25T18:11:22.820Z,73.53
2023-03-25T18:14:10.401Z,73.47
2023-03-25T18:16:37.803Z,73.51
2023-03-25T18:19:05.287Z,73.32
2023-03-25T18:21:33.392Z,73.15
2023-03-25T18:24:00.644Z,73.06
2023-03-25T18:26:28.534Z,72.92
2023-03-25T18:28:56.043Z,72.83
2023-03-25T18:31:23.695Z,72.70
2023-03-25T18:33:51.561Z,72.56
2023-03-25T18:36:19.846Z,72.54
2023-03-25T18:38:47.825Z,72.46
2023-03-25T18:41:16.218Z,72.29
2023-03-25T18:43:43.835Z,72.22
2023-03-25T18:46:14.238Z,72.09
2023-03-25T18:48:41.632Z,71.81
2023-03-25T18:51:12.418Z,71.64
2023-03-25T18:53:39.643Z,71.52
2023-03-25T18:56:08.337Z,71.37
2023-03-25T18:58:36.768Z,71.46
2023-03-25T19:01:06.081Z,71.41
2023-03-25T19:03:39.147Z,71.40
2023-03-25T19:06:09.320Z,71.38
2023-03-25T19:08:37.062Z,71.25
2023-03-25T19:11:16.560Z,71.12
2023-03-25T19:13:47.951Z,71.15
2023-03-25T19:16:15.309Z,71.04
2023-03-25T19:18:42.374Z,70.97
2023-03-25T19:21:09.927Z,71.06
2023-03-25T19:23:37.197Z,70.91
2023-03-25T19:26:04.556Z,70.87
2023-03-25T19:28:31.885Z,70.65
2023-03-25T19:31:02.397Z,70.68
2023-03-25T19:33:31.400Z,70.24
2023-03-25T19:36:01.500Z,69.77
2023-03-25T19:38:29.766Z,69.60
2023-03-25T19:41:07.234Z,69.53
2023-03-25T19:43:34.525Z,69.69
2023-03-25T19:46:02.253Z,69.99
2023-03-25T19:48:30.753Z,70.32
2023-03-25T19:50:59.058Z,70.56
2023-03-25T19:53:27.334Z,70.61
2023-03-25T19:55:55.785Z,70.76
2023-03-25T19:58:23.869Z,70.98
2023-03-25T20:00:51.618Z,71.16
2023-03-25T20:03:22.316Z,71.50
2023-03-25T20:05:50.308Z,71.67
2023-03-25T20:08:17.513Z,71.86
2023-03-25T20:10:45.040Z,72.14
2023-03-25T20:13:12.788Z,72.16
2023-03-25T20:15:39.885Z,72.32
2023-03-25T20:18:07.493Z,72.44
2023-03-25T20:20:34.914Z,72.68
2023-03-25T20:23:02.075Z,72.74
2023-03-25T20:25:48.806Z,72.76
2023-03-25T20:28:18.472Z,72.79
2023-03-25T20:30:45.641Z,72.90
2023-03-25T20:33:13.132Z,72.79
2023-03-25T20:35:40.358Z,72.96
2023-03-25T20:38:08.574Z,73.08
2023-03-25T20:40:43.943Z,73.02
2023-03-25T20:43:14.569Z,73.04
2023-03-25T20:45:42.486Z,73.23
2023-03-25T20:48:09.917Z,73.25
2023-03-25T20:50:37.205Z,73.66
2023-03-25T20:53:25.944Z,73.59
2023-03-25T20:55:53.355Z,73.60
2023-03-25T20:58:20.650Z,73.84
2023-03-25T21:00:48.627Z,74.09
2023-03-25T21:03:16.822Z,74.18
2023-03-25T21:05:44.636Z,74.10
2023-03-25T21:08:12.227Z,74.39
2023-03-25T21:10:39.446Z,74.48
2023-03-25T21:13:06.994Z,74.41
2023-03-25T21:15:34.397Z,74.48
2023-03-25T21:18:01.590Z,74.58
2023-03-25T21:20:30.148Z,74.64
2023-03-25T21:22:59.244Z,74.78
2023-03-25T21:25:34.447Z,74.53
2023-03-25T21:28:02.443Z,74.76
2023-03-25T21:30:29.909Z,74.85
2023-03-25T21:32:57.083Z,74.95
2023-03-25T21:35:26.507Z,75.09
2023-03-25T21:37:53.591Z,75.13
2023-03-25T21:40:20.916Z,75.23
2023-03-25T21:42:49.059Z,75.27
2023-03-25T21:45:17.753Z,75.36
2023-03-25T21:47:47.515Z,75.46
2023-03-25T21:50:16.641Z,75.41
2023-03-25T21:52:46.717Z,75.31
2023-03-25T21:55:15.524Z,75.59
2023-03-25T21:57:45.321Z,75.75
2023-03-25T22:00:17.035Z,75.63
2023-03-25T22:02:46.139Z,75.53
2023-03-25T22:05:15.128Z,75.53
2023-03-25T22:07:42.719Z,75.74
2023-03-25T22:10:12.378Z,75.84
2023-03-25T22:12:39.770Z,75.97
2023-03-25T22:15:08.329Z,75.86
2023-03-25T22:17:35.932Z,75.84
2023-03-25T22:20:05.394Z,75.76
2023-03-25T22:22:32.596Z,75.55
2023-03-25T22:25:00.041Z,75.36
2023-03-25T22:27:27.385Z,75.35
2023-03-25T22:29:54.500Z,75.19
2023-03-25T22:32:21.832Z,75.10
2023-03-25T22:34:49.273Z,74.92
2023-03-25T22:37:16.634Z,74.71
2023-03-25T22:39:44.267Z,74.68
2023-03-25T22:42:11.392Z,74.51
2023-03-25T22:44:38.326Z,74.48
2023-03-25T22:47:05.635Z,74.39
2023-03-25T22:49:33.431Z,74.20
2023-03-25T22:52:01.367Z,74.18
2023-03-25T22:54:28.958Z,74.23
2023-03-25T22:56:56.092Z,74.23
2023-03-25T22:59:23.344Z,74.13
2023-03-25T23:01:50.657Z,74.07
2023-03-25T23:04:29.156Z,73.97
2023-03-25T23:07:07.218Z,74.02
2023-03-25T23:09:41.399Z,73.83
2023-03-25T23:12:11.921Z,73.83
2023-03-25T23:14:39.573Z,73.85
2023-03-25T23:17:06.680Z,73.67
2023-03-25T23:19:34.344Z,73.71
2023-03-25T23:22:01.688Z,73.69
2023-03-25T23:24:29.181Z,73.57
2023-03-25T23:26:57.024Z,73.78
2023-03-25T23:29:24.362Z,73.80
2023-03-25T23:31:51.621Z,73.65
2023-03-25T23:34:19.650Z,73.54
2023-03-25T23:36:47.912Z,73.68
2023-03-25T23:39:20.083Z,73.83
2023-03-25T23:41:47.188Z,73.84
2023-03-25T23:44:14.322Z,73.84
2023-03-25T23:46:41.981Z,74.06
2023-03-25T23:49:12.364Z,74.16
2023-03-25T23:51:41.566Z,74.22
2023-03-25T23:54:10.632Z,74.30
2023-03-25T23:56:38.864Z,74.27
2023-03-25T23:59:06.520Z,74.42
